Shoal, North Carolina
Current Conditions -  °F | °C
As of 7:55 AM on Monday 22 Dec 2014 (Local Time) from KMWK Reporting Station
Drizzle Drizzle  
Wind Chill: 32°   Ceiling: 900
Heat Index: 37°   Visibility: 2.5mi
Dew Point: 34°   Wind: 6mph
Humidity: 90%   Direction: 80°E
Pressure: 30.18"   Gusts: NA
Location:  36.3244°N, 80.463°W
Report Text: KMWK 221255Z AUTO 08005KT 2 1/2SM DZ OVC009 03/01 A3018 RMK AO2 P0001 T00270012
Loading
Personal Weather Stations






























Interactive Weather Map New forecast layout! Learn more

10-Day Weather Forecast

Advertisements
Track Severe Weather on mobile